Time;durP1;ratioP1;P1;durP2;ratioP2;P2;SDS_P1;SDS_P2;PMS_P1;PMS_P2;Temp;Humidity;BMP_temperature;BMP_pressure;BME280_temperature;BME280_humidity;BME280_pressure;Samples;Min_cycle;Max_cycle;Signal;HPM_P1;HPM_P2
2023/07/15 00:02:21;;;;;;;1.63;1.15;;;;;;;;;;5114275;28;20057;-80
2023/07/15 00:04:47;;;;;;;2.38;1.40;;;;;;;;;;5097036;28;20051;-80
2023/07/15 00:07:13;;;;;;;2.28;1.10;;;;;;;;;;5114256;28;20048;-80
2023/07/15 00:09:40;;;;;;;1.30;1.17;;;;;;;;;;5115256;28;20047;-80
2023/07/15 00:12:09;;;;;;;2.20;0.98;;;;;;;;;;5115140;28;20055;-80
2023/07/15 00:14:35;;;;;;;3.58;1.35;;;;;;;;;;5114841;28;20056;-81
2023/07/15 00:17:01;;;;;;;2.25;1.30;;;;;;;;;;5113791;28;20077;-80
2023/07/15 00:19:29;;;;;;;3.05;1.52;;;;;;;;;;5114958;28;20098;-80
2023/07/15 00:21:55;;;;;;;1.23;0.90;;;;;;;;;;5113563;28;20107;-80
2023/07/15 00:24:21;;;;;;;3.05;1.10;;;;;;;;;;5114769;28;20084;-80
2023/07/15 00:26:48;;;;;;;2.92;1.20;;;;;;;;;;5096720;28;20062;-80
2023/07/15 00:29:14;;;;;;;4.20;1.40;;;;;;;;;;5114677;28;20486;-80
2023/07/15 00:31:42;;;;;;;2.92;1.05;;;;;;;;;;5096715;28;20097;-80
2023/07/15 00:34:08;;;;;;;1.92;1.08;;;;;;;;;;5113718;28;20062;-80
2023/07/15 00:36:35;;;;;;;2.35;1.20;;;;;;;;;;5115112;28;20051;-80
2023/07/15 00:39:03;;;;;;;1.15;0.90;;;;;;;;;;5096615;28;20048;-80
2023/07/15 00:41:31;;;;;;;2.63;1.30;;;;;;;;;;5096262;28;20058;-79
2023/07/15 00:44:00;;;;;;;2.75;1.27;;;;;;;;;;5113294;28;20047;-80
2023/07/15 00:46:38;;;;;;;5.30;1.35;;;;;;;;;;5113456;28;20047;-80
2023/07/15 00:49:16;;;;;;;2.55;1.48;;;;;;;;;;5114072;28;20555;-80
2023/07/15 00:51:43;;;;;;;3.03;1.63;;;;;;;;;;5113175;28;20040;-80
2023/07/15 00:54:10;;;;;;;4.13;1.20;;;;;;;;;;5113402;28;20476;-80
2023/07/15 00:56:38;;;;;;;2.55;1.00;;;;;;;;;;5114151;28;20044;-80
2023/07/15 00:59:04;;;;;;;2.50;0.93;;;;;;;;;;5113315;28;20130;-79
2023/07/15 01:01:30;;;;;;;1.70;1.25;;;;;;;;;;5112664;28;20051;-80
2023/07/15 01:03:56;;;;;;;2.08;1.00;;;;;;;;;;5114129;28;20101;-80
2023/07/15 01:06:23;;;;;;;3.22;1.10;;;;;;;;;;5113102;28;20044;-80
2023/07/15 01:08:50;;;;;;;1.80;1.05;;;;;;;;;;5112839;28;20477;-80
2023/07/15 01:11:16;;;;;;;1.40;0.90;;;;;;;;;;5096167;28;20051;-80
2023/07/15 01:13:42;;;;;;;1.83;0.85;;;;;;;;;;5112920;28;20055;-79
2023/07/15 01:16:08;;;;;;;2.33;1.15;;;;;;;;;;5113068;28;20048;-79
2023/07/15 01:18:34;;;;;;;2.67;0.77;;;;;;;;;;5113921;28;20052;-79
2023/07/15 01:21:00;;;;;;;2.03;0.68;;;;;;;;;;5113515;28;20082;-79
2023/07/15 01:23:27;;;;;;;0.90;0.55;;;;;;;;;;5095910;28;20055;-79
2023/07/15 01:25:53;;;;;;;1.33;0.80;;;;;;;;;;5113883;28;20054;-79
2023/07/15 01:28:20;;;;;;;1.70;0.73;;;;;;;;;;5113943;28;20043;-80
2023/07/15 01:30:46;;;;;;;1.33;0.52;;;;;;;;;;5113406;28;20044;-79
2023/07/15 01:33:15;;;;;;;0.98;0.70;;;;;;;;;;5095889;28;20036;-79
2023/07/15 01:35:42;;;;;;;2.88;0.60;;;;;;;;;;5112581;28;20048;-80
2023/07/15 01:38:09;;;;;;;2.22;0.73;;;;;;;;;;5113693;28;20039;-79
2023/07/15 01:40:35;;;;;;;2.35;0.60;;;;;;;;;;5113852;28;20047;-79
2023/07/15 01:43:04;;;;;;;3.30;0.50;;;;;;;;;;5112408;28;20040;-79
2023/07/15 01:45:30;;;;;;;5.13;0.60;;;;;;;;;;5113727;28;20050;-79
2023/07/15 01:47:56;;;;;;;3.60;0.73;;;;;;;;;;5112944;28;20118;-79
2023/07/15 01:50:22;;;;;;;1.52;0.70;;;;;;;;;;5112422;28;20043;-79
2023/07/15 01:52:48;;;;;;;1.02;0.82;;;;;;;;;;5112291;28;20048;-79
2023/07/15 01:55:15;;;;;;;1.80;0.60;;;;;;;;;;5112730;28;20097;-79
2023/07/15 01:57:41;;;;;;;3.45;0.70;;;;;;;;;;5112463;28;20047;-75
2023/07/15 02:00:11;;;;;;;2.17;0.68;;;;;;;;;;5113938;28;20047;-75
2023/07/15 02:02:37;;;;;;;2.13;0.80;;;;;;;;;;5113312;28;20408;-75
2023/07/15 02:05:03;;;;;;;1.52;0.55;;;;;;;;;;5113577;28;20055;-75
2023/07/15 02:07:29;;;;;;;2.60;0.82;;;;;;;;;;5113685;28;20055;-76
2023/07/15 02:09:55;;;;;;;2.05;0.68;;;;;;;;;;5112656;28;20052;-75
2023/07/15 02:12:21;;;;;;;2.90;0.70;;;;;;;;;;5095780;28;20109;-75
2023/07/15 02:14:47;;;;;;;1.95;0.70;;;;;;;;;;5112256;28;20063;-75
2023/07/15 02:17:13;;;;;;;1.98;0.65;;;;;;;;;;5113549;28;20062;-75
2023/07/15 02:19:39;;;;;;;1.40;0.60;;;;;;;;;;5113408;28;20480;-75
2023/07/15 02:22:06;;;;;;;2.63;0.50;;;;;;;;;;5116879;28;20073;-75
2023/07/15 02:24:32;;;;;;;3.20;0.80;;;;;;;;;;5116994;28;20396;-75
2023/07/15 02:26:58;;;;;;;1.83;0.40;;;;;;;;;;5116666;28;20054;-75
2023/07/15 02:29:24;;;;;;;1.05;0.50;;;;;;;;;;5115953;28;20134;-76
2023/07/15 02:31:50;;;;;;;2.10;0.55;;;;;;;;;;5117215;28;20048;-75
2023/07/15 02:34:16;;;;;;;0.88;0.50;;;;;;;;;;5116868;28;20485;-75
2023/07/15 02:36:42;;;;;;;3.22;0.60;;;;;;;;;;5117953;28;20043;-75
2023/07/15 02:39:08;;;;;;;2.40;0.50;;;;;;;;;;5116348;28;20122;-75
2023/07/15 02:41:34;;;;;;;3.70;0.50;;;;;;;;;;5117053;28;20047;-75
2023/07/15 02:44:00;;;;;;;3.35;0.50;;;;;;;;;;5115781;28;20525;-75
2023/07/15 02:46:26;;;;;;;1.05;0.50;;;;;;;;;;5116983;28;20112;-75
2023/07/15 02:48:53;;;;;;;2.33;0.55;;;;;;;;;;5116791;28;20134;-74
2023/07/15 02:51:19;;;;;;;2.50;0.60;;;;;;;;;;5117094;28;20074;-75
2023/07/15 02:53:47;;;;;;;1.98;0.50;;;;;;;;;;5116602;28;20083;-75
2023/07/15 02:56:13;;;;;;;1.40;0.60;;;;;;;;;;5117579;28;20043;-75
2023/07/15 02:58:40;;;;;;;2.40;0.43;;;;;;;;;;5116790;28;20130;-74
2023/07/15 03:01:08;;;;;;;1.17;0.40;;;;;;;;;;5115637;28;20051;-74
2023/07/15 03:03:34;;;;;;;1.27;0.50;;;;;;;;;;5116087;28;20035;-75
2023/07/15 03:06:00;;;;;;;2.67;0.40;;;;;;;;;;5116977;28;20441;-75
2023/07/15 03:08:26;;;;;;;2.13;0.40;;;;;;;;;;5116414;28;20401;-75
2023/07/15 03:10:52;;;;;;;2.30;0.50;;;;;;;;;;5116228;28;20104;-75
2023/07/15 03:13:18;;;;;;;0.90;0.40;;;;;;;;;;5114996;28;20056;-75
2023/07/15 03:15:45;;;;;;;2.83;0.50;;;;;;;;;;5116242;28;20055;-75
2023/07/15 03:18:11;;;;;;;2.20;0.45;;;;;;;;;;5115247;28;20051;-75
2023/07/15 03:20:38;;;;;;;1.83;0.50;;;;;;;;;;5116123;28;20052;-75
2023/07/15 03:23:04;;;;;;;1.80;0.50;;;;;;;;;;5116157;28;20127;-75
2023/07/15 03:25:30;;;;;;;2.80;0.40;;;;;;;;;;5115932;28;20365;-75
2023/07/15 03:27:56;;;;;;;2.08;0.47;;;;;;;;;;5116731;28;20047;-75
2023/07/15 03:30:22;;;;;;;2.63;0.50;;;;;;;;;;5116807;28;20055;-75
2023/07/15 03:32:49;;;;;;;3.55;0.40;;;;;;;;;;5113667;28;20122;-75
2023/07/15 03:35:15;;;;;;;2.72;0.40;;;;;;;;;;5116030;28;20052;-75
2023/07/15 03:37:42;;;;;;;1.20;0.47;;;;;;;;;;5115931;28;20043;-75
2023/07/15 03:40:10;;;;;;;1.55;0.40;;;;;;;;;;5115926;28;20047;-75
2023/07/15 03:42:36;;;;;;;2.42;0.75;;;;;;;;;;5115684;28;20052;-75
2023/07/15 03:45:03;;;;;;;2.25;0.55;;;;;;;;;;5115773;28;20044;-75
2023/07/15 03:47:29;;;;;;;1.65;0.40;;;;;;;;;;5115774;28;20051;-75
2023/07/15 03:49:55;;;;;;;0.95;0.40;;;;;;;;;;5115888;28;20430;-75
2023/07/15 03:52:21;;;;;;;2.78;0.50;;;;;;;;;;5115451;28;20043;-75
2023/07/15 03:54:47;;;;;;;3.47;0.40;;;;;;;;;;5114125;28;20135;-75
2023/07/15 03:57:13;;;;;;;2.80;0.57;;;;;;;;;;5115214;28;20530;-75
2023/07/15 03:59:39;;;;;;;2.13;0.50;;;;;;;;;;5114473;28;20070;-75
2023/07/15 04:02:06;;;;;;;1.35;0.40;;;;;;;;;;5115556;28;20047;-75
2023/07/15 04:04:32;;;;;;;2.33;0.55;;;;;;;;;;5115662;28;20358;-75
2023/07/15 04:06:59;;;;;;;1.92;0.65;;;;;;;;;;5115311;28;20051;-75
2023/07/15 04:09:26;;;;;;;1.67;0.40;;;;;;;;;;5114930;28;20051;-75
2023/07/15 04:11:52;;;;;;;1.90;0.68;;;;;;;;;;5115278;28;20118;-75
2023/07/15 04:14:18;;;;;;;0.90;0.40;;;;;;;;;;5115438;28;20127;-75
2023/07/15 04:16:44;;;;;;;1.95;0.60;;;;;;;;;;5115201;28;20116;-75
2023/07/15 04:19:10;;;;;;;2.13;0.40;;;;;;;;;;5115127;28;20048;-75
2023/07/15 04:21:36;;;;;;;1.65;0.40;;;;;;;;;;5115118;28;20066;-75
2023/07/15 04:24:05;;;;;;;1.40;0.40;;;;;;;;;;5114973;28;20039;-74
2023/07/15 04:26:31;;;;;;;3.15;0.40;;;;;;;;;;5113712;28;20131;-74
2023/07/15 04:28:57;;;;;;;3.75;0.45;;;;;;;;;;5114981;28;20450;-75
2023/07/15 04:31:24;;;;;;;2.17;0.50;;;;;;;;;;5113810;28;20070;-75
2023/07/15 04:33:51;;;;;;;0.85;0.40;;;;;;;;;;5115149;28;20040;-75
2023/07/15 04:36:21;;;;;;;10.65;0.70;;;;;;;;;;5114782;28;20553;-75
2023/07/15 04:38:48;;;;;;;1.55;0.40;;;;;;;;;;5113803;28;20043;-75
2023/07/15 04:41:15;;;;;;;2.55;0.32;;;;;;;;;;5113750;28;20043;-75
2023/07/15 04:43:41;;;;;;;2.75;0.47;;;;;;;;;;5113247;28;20047;-75
2023/07/15 04:46:07;;;;;;;3.85;0.60;;;;;;;;;;5114712;28;20051;-75
2023/07/15 04:48:34;;;;;;;4.13;0.50;;;;;;;;;;5114445;28;20047;-75
2023/07/15 04:51:00;;;;;;;1.90;0.50;;;;;;;;;;5114585;28;20043;-75
2023/07/15 04:53:26;;;;;;;1.77;0.30;;;;;;;;;;5097527;28;20130;-75
2023/07/15 04:55:52;;;;;;;1.67;0.47;;;;;;;;;;5113090;28;20043;-75
2023/07/15 04:58:19;;;;;;;1.52;0.77;;;;;;;;;;5113409;28;20481;-75
2023/07/15 05:00:45;;;;;;;2.30;0.47;;;;;;;;;;5114255;28;20054;-75
2023/07/15 05:03:12;;;;;;;1.38;0.50;;;;;;;;;;5113465;28;20043;-75
2023/07/15 05:05:39;;;;;;;2.28;0.40;;;;;;;;;;5114547;28;20062;-75
2023/07/15 05:08:13;;;;;;;3.50;0.47;;;;;;;;;;5114307;28;20109;-75
2023/07/15 05:10:39;;;;;;;1.07;0.40;;;;;;;;;;5113231;28;20050;-75
2023/07/15 05:13:07;;;;;;;0.90;0.40;;;;;;;;;;5112786;28;20289;-75
2023/07/15 05:15:33;;;;;;;5.60;0.50;;;;;;;;;;5114689;28;20111;-75
2023/07/15 05:18:00;;;;;;;2.55;0.40;;;;;;;;;;5114414;28;20495;-75
2023/07/15 05:20:26;;;;;;;1.70;0.40;;;;;;;;;;5114916;28;20377;-75
2023/07/15 05:22:52;;;;;;;2.15;0.63;;;;;;;;;;5113044;28;20392;-75
2023/07/15 05:25:18;;;;;;;1.95;0.40;;;;;;;;;;5113101;28;20043;-75
2023/07/15 05:27:44;;;;;;;3.38;0.52;;;;;;;;;;5096163;28;20366;-75
2023/07/15 05:30:11;;;;;;;2.67;0.50;;;;;;;;;;5113888;28;20101;-75
2023/07/15 05:32:37;;;;;;;1.77;0.45;;;;;;;;;;5096039;28;20047;-75
2023/07/15 05:35:03;;;;;;;0.82;0.40;;;;;;;;;;5113922;28;20050;-75
2023/07/15 05:37:30;;;;;;;2.35;0.80;;;;;;;;;;5114159;28;20409;-75
2023/07/15 05:39:56;;;;;;;2.22;0.52;;;;;;;;;;5114020;28;20449;-75
2023/07/15 05:42:22;;;;;;;3.70;0.50;;;;;;;;;;5113670;28;20048;-75
2023/07/15 05:44:48;;;;;;;4.70;0.82;;;;;;;;;;5113822;28;20074;-75
2023/07/15 05:47:14;;;;;;;1.63;0.40;;;;;;;;;;5112897;28;20044;-75
2023/07/15 05:49:40;;;;;;;1.63;0.40;;;;;;;;;;5114350;28;20051;-75
2023/07/15 05:52:07;;;;;;;3.13;0.45;;;;;;;;;;5113748;28;20047;-74
2023/07/15 05:54:33;;;;;;;2.22;0.57;;;;;;;;;;5113035;28;20051;-74
2023/07/15 05:56:59;;;;;;;1.10;0.40;;;;;;;;;;5117131;28;20062;-74
2023/07/15 05:59:25;;;;;;;3.78;0.50;;;;;;;;;;5117878;28;20043;-75
2023/07/15 06:01:51;;;;;;;3.78;0.73;;;;;;;;;;5116720;28;20594;-75
2023/07/15 06:04:17;;;;;;;4.00;0.75;;;;;;;;;;5116510;28;20043;-75
2023/07/15 06:06:43;;;;;;;1.30;0.60;;;;;;;;;;5117496;28;20050;-75
2023/07/15 06:09:09;;;;;;;1.67;0.60;;;;;;;;;;5116396;28;20043;-75
2023/07/15 06:11:35;;;;;;;4.22;0.70;;;;;;;;;;5117372;28;20553;-75
2023/07/15 06:14:04;;;;;;;3.60;0.50;;;;;;;;;;5117542;28;20095;-75
2023/07/15 06:16:31;;;;;;;1.73;0.50;;;;;;;;;;5116553;28;20489;-75
2023/07/15 06:18:57;;;;;;;3.47;0.60;;;;;;;;;;5116378;28;20051;-74
2023/07/15 06:21:23;;;;;;;4.63;0.52;;;;;;;;;;5117454;28;20090;-75
2023/07/15 06:23:49;;;;;;;2.25;0.40;;;;;;;;;;5116978;28;20040;-74
2023/07/15 06:26:16;;;;;;;2.58;0.60;;;;;;;;;;5116320;28;20097;-75
2023/07/15 06:28:42;;;;;;;1.77;0.55;;;;;;;;;;5117325;28;20083;-74
2023/07/15 06:31:08;;;;;;;6.32;0.80;;;;;;;;;;5117188;28;20086;-75
2023/07/15 06:33:34;;;;;;;2.13;0.40;;;;;;;;;;5099434;28;20055;-75
2023/07/15 06:36:01;;;;;;;0.80;0.40;;;;;;;;;;5116965;28;20263;-75
2023/07/15 06:38:30;;;;;;;2.65;0.68;;;;;;;;;;5117165;28;20050;-75
2023/07/15 06:40:57;;;;;;;1.10;0.55;;;;;;;;;;5115966;28;20465;-75
2023/07/15 06:43:23;;;;;;;6.57;0.77;;;;;;;;;;5116984;28;20046;-75
2023/07/15 06:45:49;;;;;;;3.65;0.60;;;;;;;;;;5117015;28;20043;-75
2023/07/15 06:48:17;;;;;;;3.05;0.50;;;;;;;;;;5116945;28;20044;-75
2023/07/15 06:50:43;;;;;;;4.72;0.60;;;;;;;;;;5117211;28;20050;-76
2023/07/15 06:53:09;;;;;;;2.33;0.80;;;;;;;;;;5115825;28;20047;-75
2023/07/15 06:55:36;;;;;;;2.75;0.60;;;;;;;;;;5116820;28;20054;-74
2023/07/15 06:58:03;;;;;;;1.35;0.50;;;;;;;;;;5116968;28;20142;-75
2023/07/15 07:00:29;;;;;;;2.88;0.70;;;;;;;;;;5116440;28;20043;-75
2023/07/15 07:02:56;;;;;;;4.07;0.60;;;;;;;;;;5115590;28;20070;-75
2023/07/15 07:05:22;;;;;;;2.60;0.70;;;;;;;;;;5115662;28;20039;-75
2023/07/15 07:07:48;;;;;;;1.27;0.50;;;;;;;;;;5115852;28;20094;-75
2023/07/15 07:10:14;;;;;;;3.78;0.60;;;;;;;;;;5115576;28;20047;-76
2023/07/15 07:12:40;;;;;;;2.03;0.70;;;;;;;;;;5116451;28;20040;-75
2023/07/15 07:15:07;;;;;;;1.90;0.50;;;;;;;;;;5116000;27;20413;-75
2023/07/15 07:17:33;;;;;;;2.03;0.60;;;;;;;;;;5116383;28;20044;-75
2023/07/15 07:19:59;;;;;;;3.28;0.60;;;;;;;;;;5116367;28;20104;-75
2023/07/15 07:22:25;;;;;;;2.33;0.40;;;;;;;;;;5116152;28;20054;-75
2023/07/15 07:24:54;;;;;;;1.95;0.65;;;;;;;;;;5116074;28;20130;-75
2023/07/15 07:27:20;;;;;;;3.90;0.50;;;;;;;;;;5115033;28;20052;-75
2023/07/15 07:29:46;;;;;;;4.30;0.73;;;;;;;;;;5115132;28;20473;-78
2023/07/15 07:32:13;;;;;;;0.93;0.65;;;;;;;;;;5116568;28;20049;-75
2023/07/15 07:34:39;;;;;;;1.45;0.52;;;;;;;;;;5115849;28;20463;-75
2023/07/15 07:37:05;;;;;;;1.50;0.40;;;;;;;;;;5115958;28;20051;-75
2023/07/15 07:39:31;;;;;;;2.40;0.40;;;;;;;;;;5115929;28;20048;-75
2023/07/15 07:41:57;;;;;;;1.83;0.40;;;;;;;;;;5116129;28;20079;-75
2023/07/15 07:44:23;;;;;;;1.75;0.50;;;;;;;;;;5115413;28;20492;-75
2023/07/15 07:46:49;;;;;;;1.42;0.40;;;;;;;;;;5116373;28;20059;-75
2023/07/15 07:49:15;;;;;;;2.70;0.40;;;;;;;;;;5114746;28;20039;-75
2023/07/15 07:51:41;;;;;;;1.90;0.40;;;;;;;;;;5114777;28;20051;-75
2023/07/15 07:54:07;;;;;;;1.67;0.40;;;;;;;;;;5114177;28;20501;-75
2023/07/15 07:56:33;;;;;;;1.67;0.50;;;;;;;;;;5115637;28;20048;-75
2023/07/15 07:59:01;;;;;;;2.65;0.50;;;;;;;;;;5116337;28;20063;-75
2023/07/15 08:01:28;;;;;;;1.55;0.60;;;;;;;;;;5115287;28;20092;-75
2023/07/15 08:03:55;;;;;;;2.20;0.50;;;;;;;;;;5114247;28;20472;-74
2023/07/15 08:06:22;;;;;;;2.80;0.55;;;;;;;;;;5114481;28;20055;-75
2023/07/15 08:08:48;;;;;;;2.15;0.50;;;;;;;;;;5115360;28;20043;-75
2023/07/15 08:11:14;;;;;;;0.98;0.45;;;;;;;;;;5115857;28;20136;-75
2023/07/15 08:13:40;;;;;;;3.30;0.47;;;;;;;;;;5115180;28;20067;-76
2023/07/15 08:16:06;;;;;;;0.95;0.50;;;;;;;;;;5114820;28;20469;-75
2023/07/15 08:18:32;;;;;;;1.90;0.50;;;;;;;;;;5113450;28;20049;-75
2023/07/15 08:20:58;;;;;;;4.65;0.60;;;;;;;;;;5115009;28;20051;-75
2023/07/15 08:23:24;;;;;;;1.60;0.30;;;;;;;;;;5115574;28;20048;-75
2023/07/15 08:25:50;;;;;;;1.17;0.50;;;;;;;;;;5114041;28;20134;-75
2023/07/15 08:28:16;;;;;;;2.58;0.55;;;;;;;;;;5115005;28;20388;-75
2023/07/15 08:30:42;;;;;;;2.65;0.70;;;;;;;;;;5115746;28;20051;-75
2023/07/15 08:33:08;;;;;;;2.83;0.50;;;;;;;;;;5113977;28;20107;-75
2023/07/15 08:35:35;;;;;;;1.67;0.43;;;;;;;;;;5096574;28;20048;-75
2023/07/15 08:38:01;;;;;;;0.70;0.40;;;;;;;;;;5114686;28;20044;-75
2023/07/15 08:40:27;;;;;;;5.32;0.50;;;;;;;;;;5114512;28;20066;-75
2023/07/15 08:42:53;;;;;;;3.00;0.35;;;;;;;;;;5096331;28;20039;-76
2023/07/15 08:45:20;;;;;;;1.08;0.38;;;;;;;;;;5115078;28;20047;-75
2023/07/15 08:47:46;;;;;;;0.80;0.30;;;;;;;;;;5114583;28;20047;-75
2023/07/15 08:50:15;;;;;;;0.90;0.30;;;;;;;;;;5114635;28;20043;-75
2023/07/15 08:52:41;;;;;;;2.90;0.40;;;;;;;;;;5113185;28;20059;-75
2023/07/15 08:55:08;;;;;;;3.63;0.40;;;;;;;;;;5114462;28;20050;-75
2023/07/15 08:57:34;;;;;;;1.05;0.30;;;;;;;;;;5114432;28;20101;-75
2023/07/15 09:00:04;;;;;;;1.38;0.40;;;;;;;;;;5113581;28;20035;-75
2023/07/15 09:02:30;;;;;;;1.50;0.73;;;;;;;;;;5114304;28;20111;-75
2023/07/15 09:04:57;;;;;;;2.78;0.40;;;;;;;;;;5114452;28;20616;-75
2023/07/15 09:07:27;;;;;;;1.13;0.40;;;;;;;;;;5113278;28;20135;-75
2023/07/15 09:09:53;;;;;;;1.45;0.32;;;;;;;;;;5114182;28;20488;-75
2023/07/15 09:12:22;;;;;;;0.85;0.30;;;;;;;;;;5113604;28;20493;-75
2023/07/15 09:14:51;;;;;;;1.20;0.50;;;;;;;;;;5114452;28;20051;-75
2023/07/15 09:17:23;;;;;;;0.70;0.40;;;;;;;;;;5113098;28;20056;-76
2023/07/15 09:19:50;;;;;;;1.95;0.40;;;;;;;;;;5114207;28;20054;-75
2023/07/15 09:22:16;;;;;;;0.60;0.40;;;;;;;;;;5080206;28;20055;-75
2023/07/15 09:24:42;;;;;;;3.58;0.85;;;;;;;;;;5113948;28;20065;-75
2023/07/15 09:27:08;;;;;;;3.22;0.30;;;;;;;;;;5112926;28;20477;-75
2023/07/15 09:29:35;;;;;;;2.50;0.60;;;;;;;;;;5113582;28;20055;-75
2023/07/15 09:32:01;;;;;;;0.85;0.40;;;;;;;;;;5113409;28;20047;-75
2023/07/15 09:34:27;;;;;;;0.47;0.30;;;;;;;;;;5112977;28;20067;-75
2023/07/15 09:36:55;;;;;;;1.90;0.22;;;;;;;;;;5113818;28;20179;-75
2023/07/15 09:39:22;;;;;;;0.75;0.30;;;;;;;;;;5113879;28;20044;-75
2023/07/15 09:42:01;;;;;;;4.28;0.30;;;;;;;;;;5113568;28;20508;-75
2023/07/15 09:44:37;;;;;;;1.75;0.30;;;;;;;;;;5114383;28;20139;-75
2023/07/15 09:47:04;;;;;;;2.65;0.30;;;;;;;;;;5114215;28;20151;-75
2023/07/15 09:49:30;;;;;;;0.77;0.20;;;;;;;;;;5112899;28;20366;-75
2023/07/15 09:51:57;;;;;;;2.58;0.25;;;;;;;;;;5112849;28;20082;-75
2023/07/15 09:54:25;;;;;;;1.67;0.60;;;;;;;;;;5113752;28;20051;-74
2023/07/15 09:56:54;;;;;;;2.40;0.30;;;;;;;;;;5114304;28;20039;-73
2023/07/15 09:59:21;;;;;;;2.42;0.30;;;;;;;;;;5112918;28;20077;-73
2023/07/15 10:01:49;;;;;;;2.03;0.30;;;;;;;;;;5113634;28;20091;-75
2023/07/15 10:04:42;;;;;;;1.88;0.20;;;;;;;;;;5112441;28;20496;-75
2023/07/15 10:07:08;;;;;;;0.88;0.30;;;;;;;;;;5109089;28;20431;-75
2023/07/15 10:09:36;;;;;;;0.82;0.20;;;;;;;;;;5112691;28;20054;-75
2023/07/15 10:12:03;;;;;;;1.17;0.20;;;;;;;;;;5114061;28;20079;-75
2023/07/15 10:14:31;;;;;;;1.55;0.30;;;;;;;;;;5113531;28;20488;-75
2023/07/15 10:17:08;;;;;;;2.50;0.30;;;;;;;;;;5113623;28;20058;-75
2023/07/15 10:19:43;;;;;;;0.60;0.30;;;;;;;;;;5114062;28;20048;-75
2023/07/15 10:22:10;;;;;;;0.70;0.30;;;;;;;;;;5113194;28;20500;-75
2023/07/15 10:24:36;;;;;;;1.70;0.30;;;;;;;;;;5113430;28;20044;-75
2023/07/15 10:27:10;;;;;;;4.75;0.30;;;;;;;;;;5113432;28;20069;-75
2023/07/15 10:29:40;;;;;;;1.02;0.30;;;;;;;;;;5113425;28;20055;-75
2023/07/15 10:32:16;;;;;;;2.22;0.20;;;;;;;;;;5112988;28;20481;-75
2023/07/15 10:34:48;;;;;;;1.52;0.30;;;;;;;;;;5112240;28;20039;-75
2023/07/15 10:37:15;;;;;;;3.28;0.20;;;;;;;;;;5114010;28;20055;-76
2023/07/15 10:39:42;;;;;;;1.45;0.22;;;;;;;;;;5112627;28;20040;-75
2023/07/15 10:42:18;;;;;;;1.73;0.20;;;;;;;;;;5114061;28;20493;-75
2023/07/15 10:44:54;;;;;;;0.75;0.25;;;;;;;;;;5116955;28;20050;-75
2023/07/15 10:47:20;;;;;;;2.03;0.20;;;;;;;;;;5116788;28;20081;-75
2023/07/15 10:49:47;;;;;;;1.45;0.20;;;;;;;;;;5116946;28;20050;-75
2023/07/15 10:52:19;;;;;;;2.50;0.30;;;;;;;;;;5115715;28;20046;-75
2023/07/15 10:54:46;;;;;;;2.10;0.30;;;;;;;;;;5116924;28;20050;-75
2023/07/15 10:57:16;;;;;;;4.07;0.40;;;;;;;;;;5115788;28;20051;-75
2023/07/15 10:59:43;;;;;;;1.55;0.40;;;;;;;;;;5116742;28;20509;-75
2023/07/15 11:02:10;;;;;;;1.98;0.30;;;;;;;;;;5116245;28;20511;-75
2023/07/15 11:04:37;;;;;;;1.70;0.40;;;;;;;;;;5117278;28;20101;-75
2023/07/15 11:07:12;;;;;;;10.82;0.75;;;;;;;;;;5116227;28;20550;-75
2023/07/15 11:09:45;;;;;;;1.90;0.45;;;;;;;;;;5115571;28;20050;-75
2023/07/15 11:12:11;;;;;;;1.58;0.25;;;;;;;;;;5116508;28;20043;-75
2023/07/15 11:14:45;;;;;;;1.88;0.20;;;;;;;;;;5116044;28;20061;-75
2023/07/15 11:17:14;;;;;;;3.22;0.28;;;;;;;;;;5115744;28;20052;-75
2023/07/15 11:19:40;;;;;;;1.60;0.40;;;;;;;;;;5115303;28;20492;-75
2023/07/15 11:22:10;;;;;;;0.70;0.20;;;;;;;;;;5115315;28;20123;-75
2023/07/15 11:24:36;;;;;;;0.77;0.20;;;;;;;;;;5116455;28;20048;-75
2023/07/15 11:27:02;;;;;;;2.47;0.55;;;;;;;;;;5116159;28;20177;-76
2023/07/15 11:29:28;;;;;;;0.60;0.30;;;;;;;;;;5116944;28;20039;-75
2023/07/15 11:31:55;;;;;;;3.03;0.30;;;;;;;;;;5116056;28;20516;-75
2023/07/15 11:34:22;;;;;;;3.80;0.40;;;;;;;;;;5116533;28;20127;-75
2023/07/15 11:36:49;;;;;;;2.72;0.30;;;;;;;;;;5115976;28;20050;-76
2023/07/15 11:39:15;;;;;;;0.70;0.22;;;;;;;;;;5114845;28;20131;-75
2023/07/15 11:41:42;;;;;;;1.15;0.30;;;;;;;;;;5115760;28;20047;-75
2023/07/15 11:44:11;;;;;;;2.03;0.30;;;;;;;;;;5115376;28;20427;-75
2023/07/15 11:46:44;;;;;;;2.50;0.40;;;;;;;;;;5115757;28;20047;-75
2023/07/15 11:49:10;;;;;;;0.80;0.30;;;;;;;;;;5116282;28;20044;-74
2023/07/15 11:51:37;;;;;;;2.85;0.60;;;;;;;;;;5115979;28;20054;-74
2023/07/15 11:54:08;;;;;;;1.45;0.40;;;;;;;;;;5114672;28;20047;-75
2023/07/15 11:56:34;;;;;;;1.83;0.50;;;;;;;;;;5115320;28;20058;-76
2023/07/15 11:59:00;;;;;;;3.92;0.65;;;;;;;;;;5114720;28;20051;-76
2023/07/15 12:01:27;;;;;;;1.52;0.50;;;;;;;;;;5114331;28;20040;-76
2023/07/15 12:03:53;;;;;;;2.00;0.30;;;;;;;;;;5097337;28;20083;-76
2023/07/15 12:06:21;;;;;;;0.88;0.30;;;;;;;;;;5115188;28;20175;-76
2023/07/15 12:09:07;;;;;;;1.42;0.30;;;;;;;;;;5114828;28;20055;-75
2023/07/15 12:11:34;;;;;;;0.85;0.30;;;;;;;;;;5114046;28;20473;-75
2023/07/15 12:14:00;;;;;;;1.55;0.30;;;;;;;;;;5115195;28;20055;-75
2023/07/15 12:16:26;;;;;;;1.38;0.30;;;;;;;;;;5114177;28;20062;-75
2023/07/15 12:18:53;;;;;;;1.08;0.40;;;;;;;;;;5114088;28;20055;-76
2023/07/15 12:21:19;;;;;;;2.17;0.30;;;;;;;;;;5114922;28;20051;-76
2023/07/15 12:23:45;;;;;;;2.17;0.40;;;;;;;;;;5115329;28;20044;-76
2023/07/15 12:26:11;;;;;;;6.55;0.32;;;;;;;;;;5114721;28;20044;-76
2023/07/15 12:28:37;;;;;;;1.00;0.28;;;;;;;;;;5113704;28;20055;-75
2023/07/15 12:31:03;;;;;;;1.10;0.30;;;;;;;;;;5114627;28;20079;-76
2023/07/15 12:33:29;;;;;;;0.85;0.30;;;;;;;;;;5096587;28;20362;-76
2023/07/15 12:35:55;;;;;;;1.83;0.30;;;;;;;;;;5113179;28;20445;-75
2023/07/15 12:38:21;;;;;;;1.75;0.30;;;;;;;;;;5113300;28;20069;-76
2023/07/15 12:40:48;;;;;;;0.75;0.30;;;;;;;;;;5113518;28;20557;-76
2023/07/15 12:43:14;;;;;;;0.55;0.20;;;;;;;;;;5115207;28;20070;-76
2023/07/15 12:45:41;;;;;;;1.33;0.30;;;;;;;;;;5114660;28;20047;-75
2023/07/15 12:48:07;;;;;;;2.50;0.30;;;;;;;;;;5113262;28;20048;-75
2023/07/15 12:50:33;;;;;;;0.68;0.28;;;;;;;;;;5114212;28;20040;-76
2023/07/15 12:52:59;;;;;;;1.52;0.20;;;;;;;;;;5112706;28;20507;-76
2023/07/15 12:55:25;;;;;;;1.42;0.20;;;;;;;;;;5114990;28;20089;-75
2023/07/15 12:57:51;;;;;;;2.45;0.20;;;;;;;;;;5114003;28;20131;-75
2023/07/15 13:00:17;;;;;;;1.30;0.30;;;;;;;;;;5112972;28;20145;-76
2023/07/15 13:02:43;;;;;;;1.30;0.30;;;;;;;;;;5114022;28;20043;-76
2023/07/15 13:05:09;;;;;;;0.52;0.20;;;;;;;;;;5113047;28;20043;-75
2023/07/15 13:07:36;;;;;;;2.58;0.30;;;;;;;;;;5113165;28;20043;-75
2023/07/15 13:10:02;;;;;;;1.65;0.20;;;;;;;;;;5113268;28;20341;-75
2023/07/15 13:12:28;;;;;;;0.93;0.20;;;;;;;;;;5113152;28;20059;-75
2023/07/15 13:14:54;;;;;;;1.75;0.30;;;;;;;;;;5114020;28;20056;-75
2023/07/15 13:17:20;;;;;;;1.50;0.30;;;;;;;;;;5114101;28;20052;-75
2023/07/15 13:19:46;;;;;;;0.38;0.20;;;;;;;;;;5114129;28;20156;-75
2023/07/15 13:22:13;;;;;;;2.95;0.30;;;;;;;;;;5114138;28;20179;-75
2023/07/15 13:24:39;;;;;;;1.90;0.30;;;;;;;;;;5114001;28;20039;-75
2023/07/15 13:27:05;;;;;;;1.70;0.50;;;;;;;;;;5113029;28;20576;-74
2023/07/15 13:29:31;;;;;;;1.90;0.30;;;;;;;;;;5113874;28;20381;-75
2023/07/15 13:31:57;;;;;;;1.40;0.28;;;;;;;;;;5113876;28;20116;-75
2023/07/15 13:34:23;;;;;;;5.40;0.47;;;;;;;;;;5113239;28;20047;-75
2023/07/15 13:36:49;;;;;;;3.33;0.30;;;;;;;;;;5113877;28;20051;-75
2023/07/15 13:39:35;;;;;;;3.40;0.30;;;;;;;;;;5113529;28;20055;-75
2023/07/15 13:42:02;;;;;;;0.50;0.20;;;;;;;;;;5113944;28;20055;-75
2023/07/15 13:44:29;;;;;;;2.80;0.30;;;;;;;;;;5113819;28;20044;-75
2023/07/15 13:46:55;;;;;;;1.58;0.30;;;;;;;;;;5112865;28;20077;-75
2023/07/15 13:49:21;;;;;;;1.88;0.40;;;;;;;;;;5114049;28;20040;-75
2023/07/15 13:51:47;;;;;;;3.65;0.30;;;;;;;;;;5113822;28;20055;-75
2023/07/15 13:54:13;;;;;;;2.85;0.40;;;;;;;;;;5113087;28;20054;-75
2023/07/15 13:56:39;;;;;;;1.38;0.40;;;;;;;;;;5113811;28;20097;-75
2023/07/15 13:59:05;;;;;;;2.03;0.50;;;;;;;;;;5112975;28;20039;-75
2023/07/15 14:01:31;;;;;;;2.47;0.30;;;;;;;;;;5112930;28;20043;-75
2023/07/15 14:03:57;;;;;;;1.63;0.40;;;;;;;;;;5095918;28;20056;-75
2023/07/15 14:06:23;;;;;;;0.70;0.30;;;;;;;;;;5114469;28;20425;-75
2023/07/15 14:08:49;;;;;;;1.25;0.30;;;;;;;;;;5112703;28;20083;-75
2023/07/15 14:11:15;;;;;;;0.60;0.30;;;;;;;;;;5113696;28;20113;-75
2023/07/15 14:13:41;;;;;;;1.85;0.30;;;;;;;;;;5112926;28;20408;-75
2023/07/15 14:16:08;;;;;;;4.35;0.40;;;;;;;;;;5114092;28;20059;-75
2023/07/15 14:18:34;;;;;;;0.90;0.30;;;;;;;;;;5116832;28;20075;-75
2023/07/15 14:21:00;;;;;;;1.60;0.30;;;;;;;;;;5117741;28;20055;-75
2023/07/15 14:23:26;;;;;;;1.63;0.40;;;;;;;;;;5117420;28;20076;-75
2023/07/15 14:25:52;;;;;;;2.00;0.30;;;;;;;;;;5116670;28;20049;-74
2023/07/15 14:28:18;;;;;;;1.30;0.30;;;;;;;;;;5117327;28;20051;-75
2023/07/15 14:30:44;;;;;;;1.33;0.57;;;;;;;;;;5116923;28;20509;-75
2023/07/15 14:33:10;;;;;;;0.70;0.30;;;;;;;;;;5117799;28;20039;-75
2023/07/15 14:35:36;;;;;;;1.15;0.40;;;;;;;;;;5117266;28;20043;-75
2023/07/15 14:38:02;;;;;;;2.38;0.40;;;;;;;;;;5116160;28;20042;-75
2023/07/15 14:40:28;;;;;;;0.90;0.35;;;;;;;;;;5117108;28;20044;-76
2023/07/15 14:42:54;;;;;;;2.65;0.30;;;;;;;;;;5116940;28;20144;-75